createdAt,value
2019-01-24T00:00:01.593Z,62.03
2019-01-24T00:02:28.221Z,59.33
2019-01-24T00:04:54.884Z,58.53
2019-01-24T00:07:21.437Z,57.90
2019-01-24T00:09:47.994Z,66.67
2019-01-24T00:12:14.489Z,61.20
2019-01-24T00:14:41.033Z,62.63
2019-01-24T00:17:07.633Z,56.53
2019-01-24T00:19:34.111Z,63.23
2019-01-24T00:22:00.475Z,61.47
2019-01-24T00:24:26.833Z,63.03
2019-01-24T00:26:53.218Z,60.60
2019-01-24T00:29:19.549Z,59.57
2019-01-24T00:31:46.163Z,67.97
2019-01-24T00:34:12.744Z,61.77
2019-01-24T00:36:39.242Z,66.23
2019-01-24T00:39:06.953Z,60.87
2019-01-24T00:41:33.374Z,63.07
2019-01-24T00:43:59.684Z,60.03
2019-01-24T00:46:26.203Z,57.87
2019-01-24T00:48:52.864Z,64.80
2019-01-24T00:51:19.200Z,62.63
2019-01-24T00:53:45.711Z,59.10
2019-01-24T00:56:13.242Z,60.67
2019-01-24T00:58:39.776Z,61.83
2019-01-24T01:01:06.177Z,62.07
2019-01-24T01:03:32.573Z,64.17
2019-01-24T01:05:59.967Z,61.30
2019-01-24T01:08:26.492Z,62.73
2019-01-24T01:10:52.877Z,60.07
2019-01-24T01:13:19.454Z,61.87
2019-01-24T01:15:45.983Z,59.00
2019-01-24T01:18:12.492Z,62.67
2019-01-24T01:20:38.818Z,62.33
2019-01-24T01:23:05.404Z,58.90
2019-01-24T01:25:31.919Z,61.90
2019-01-24T01:27:58.557Z,60.60
2019-01-24T01:30:25.107Z,64.60
2019-01-24T01:32:51.864Z,70.77
2019-01-24T01:35:18.787Z,61.93
2019-01-24T01:37:45.432Z,57.90
2019-01-24T01:40:16.704Z,63.87
2019-01-24T01:42:43.412Z,61.83
2019-01-24T01:45:14.197Z,57.10
2019-01-24T01:47:41.234Z,62.67
2019-01-24T01:50:12.943Z,58.07
2019-01-24T01:52:39.534Z,62.33
2019-01-24T01:55:06.212Z,61.80
2019-01-24T01:57:32.762Z,62.93
2019-01-24T01:59:59.250Z,60.43
2019-01-24T02:02:25.887Z,59.07
2019-01-24T02:04:52.309Z,63.40
2019-01-24T02:07:18.743Z,59.87
2019-01-24T02:09:45.324Z,59.07
2019-01-24T02:12:11.848Z,62.73
2019-01-24T02:14:38.267Z,60.50
2019-01-24T02:17:04.907Z,64.43
2019-01-24T02:19:31.388Z,63.17
2019-01-24T02:21:57.792Z,58.17
2019-01-24T02:24:24.445Z,67.30
2019-01-24T02:26:50.894Z,61.90
2019-01-24T02:29:17.298Z,61.53
2019-01-24T02:31:43.772Z,67.67
2019-01-24T02:34:10.374Z,65.97
2019-01-24T02:36:36.797Z,61.00
2019-01-24T02:39:06.018Z,66.73
2019-01-24T02:41:32.388Z,66.70
2019-01-24T02:43:58.689Z,62.17
2019-01-24T02:46:24.974Z,66.83
2019-01-24T02:48:51.514Z,66.97
2019-01-24T02:51:17.893Z,60.53
2019-01-24T02:53:44.403Z,66.17
2019-01-24T02:56:10.803Z,69.07
2019-01-24T02:58:37.189Z,60.57
2019-01-24T03:01:03.702Z,66.87
2019-01-24T03:03:30.283Z,68.13
2019-01-24T03:05:56.832Z,61.83
2019-01-24T03:08:23.233Z,58.77
2019-01-24T03:10:49.644Z,57.50
2019-01-24T03:13:16.158Z,64.07
2019-01-24T03:15:42.703Z,68.70
2019-01-24T03:18:09.218Z,66.77
2019-01-24T03:20:35.797Z,70.00
2019-01-24T03:23:02.293Z,88.13
2019-01-24T03:25:28.696Z,78.30
2019-01-24T03:27:55.189Z,65.13
2019-01-24T03:30:21.812Z,61.87
2019-01-24T03:32:48.437Z,63.70
2019-01-24T03:35:18.707Z,61.07
2019-01-24T03:37:45.552Z,57.90
2019-01-24T03:40:13.795Z,65.43
2019-01-24T03:42:40.449Z,66.27
2019-01-24T03:45:13.514Z,67.73
2019-01-24T03:47:40.169Z,60.87
2019-01-24T03:50:16.569Z,67.40
2019-01-24T03:52:43.164Z,66.30
2019-01-24T03:55:11.863Z,66.60
2019-01-24T03:57:38.373Z,61.63
2019-01-24T04:00:21.235Z,69.37
2019-01-24T04:02:48.034Z,65.30
2019-01-24T04:05:14.831Z,70.37
2019-01-24T04:07:41.496Z,68.07
2019-01-24T04:10:12.391Z,93.47
2019-01-24T04:12:38.819Z,94.20
2019-01-24T04:15:10.000Z,75.13
2019-01-24T04:17:36.497Z,67.50
2019-01-24T04:20:07.199Z,66.80
2019-01-24T04:22:33.583Z,66.23
2019-01-24T04:25:00.209Z,69.43
2019-01-24T04:27:26.498Z,65.80
2019-01-24T04:29:52.937Z,68.50
2019-01-24T04:32:19.338Z,70.53
2019-01-24T04:34:45.647Z,64.87
2019-01-24T04:37:12.155Z,67.60
2019-01-24T04:39:38.657Z,67.97
2019-01-24T04:42:05.763Z,61.60
2019-01-24T04:44:32.282Z,69.83
2019-01-24T04:46:58.780Z,69.03
2019-01-24T04:49:25.232Z,67.73
2019-01-24T04:51:51.740Z,69.77
2019-01-24T04:54:18.118Z,71.07
2019-01-24T04:56:44.643Z,67.73
2019-01-24T04:59:11.242Z,73.90
2019-01-24T05:01:37.877Z,75.03
2019-01-24T05:04:04.480Z,77.00
2019-01-24T05:06:30.899Z,71.90
2019-01-24T05:08:57.413Z,69.77
2019-01-24T05:11:23.995Z,71.03
2019-01-24T05:13:50.458Z,71.83
2019-01-24T05:16:16.787Z,71.77
2019-01-24T05:18:43.264Z,68.77
2019-01-24T05:21:09.684Z,70.07
2019-01-24T05:23:36.177Z,66.20
2019-01-24T05:26:02.882Z,72.27
2019-01-24T05:28:29.248Z,81.03
2019-01-24T05:30:55.785Z,71.03
2019-01-24T05:33:22.123Z,82.67
2019-01-24T05:35:48.541Z,74.53
2019-01-24T05:38:15.084Z,73.80
2019-01-24T05:40:41.686Z,76.23
2019-01-24T05:43:09.102Z,79.23
2019-01-24T05:45:35.593Z,72.10
2019-01-24T05:48:02.029Z,76.50
2019-01-24T05:50:28.320Z,68.30
2019-01-24T05:52:54.666Z,75.33
2019-01-24T05:55:21.566Z,79.73
2019-01-24T05:57:47.972Z,79.73
2019-01-24T06:00:21.597Z,77.60
2019-01-24T06:02:48.147Z,80.33
2019-01-24T06:05:15.019Z,78.07
2019-01-24T06:07:41.731Z,77.20
2019-01-24T06:10:14.094Z,71.73
2019-01-24T06:12:40.658Z,69.00
2019-01-24T06:15:11.249Z,71.03
2019-01-24T06:17:37.758Z,76.00
2019-01-24T06:20:07.578Z,76.70
2019-01-24T06:22:34.158Z,79.93
2019-01-24T06:25:00.698Z,69.20
2019-01-24T06:27:27.081Z,74.23
2019-01-24T06:29:53.699Z,82.07
2019-01-24T06:32:20.098Z,73.90
2019-01-24T06:34:46.528Z,75.43
2019-01-24T06:37:13.064Z,79.27
2019-01-24T06:39:39.506Z,80.43
2019-01-24T06:42:05.924Z,79.17
2019-01-24T06:44:32.453Z,80.80
2019-01-24T06:46:58.972Z,75.27
2019-01-24T06:49:25.517Z,75.30
2019-01-24T06:51:52.003Z,82.77
2019-01-24T06:54:18.428Z,85.87
2019-01-24T06:56:44.842Z,76.57
2019-01-24T06:59:11.384Z,74.77
2019-01-24T07:01:37.878Z,86.78
2019-01-24T07:04:04.491Z,82.37
2019-01-24T07:06:31.122Z,82.73
2019-01-24T07:08:57.567Z,82.37
2019-01-24T07:11:24.087Z,86.60
2019-01-24T07:13:50.420Z,80.10
2019-01-24T07:16:16.738Z,77.53
2019-01-24T07:18:43.249Z,83.70
2019-01-24T07:21:09.783Z,86.07
2019-01-24T07:23:36.359Z,81.73
2019-01-24T07:26:03.260Z,81.63
2019-01-24T07:28:31.668Z,88.30
2019-01-24T07:30:58.195Z,82.40
2019-01-24T07:33:24.794Z,85.47
2019-01-24T07:35:51.316Z,82.40
2019-01-24T07:38:17.745Z,84.73
2019-01-24T07:40:44.308Z,86.73
2019-01-24T07:43:10.692Z,81.03
2019-01-24T07:45:38.906Z,83.30
2019-01-24T07:48:05.515Z,81.77
2019-01-24T07:50:32.086Z,81.87
2019-01-24T07:52:58.607Z,87.50
2019-01-24T07:55:25.108Z,83.13
2019-01-24T07:57:51.644Z,85.83
2019-01-24T08:00:21.574Z,86.10
2019-01-24T08:02:48.260Z,84.50
2019-01-24T08:05:15.188Z,83.43
2019-01-24T08:07:41.959Z,85.57
2019-01-24T08:10:20.828Z,86.43
2019-01-24T08:12:47.458Z,85.53
2019-01-24T08:15:17.343Z,81.63
2019-01-24T08:17:44.098Z,80.47
2019-01-24T08:20:15.226Z,87.57
2019-01-24T08:22:41.752Z,89.23
2019-01-24T08:25:09.673Z,90.93
2019-01-24T08:27:36.389Z,90.83
2019-01-24T08:30:08.518Z,89.97
2019-01-24T08:32:35.264Z,86.07
2019-01-24T08:35:01.864Z,81.33
2019-01-24T08:37:28.303Z,139.50
2019-01-24T08:39:54.705Z,198.33
2019-01-24T08:42:21.349Z,128.43
2019-01-24T08:44:47.769Z,78.10
2019-01-24T08:47:14.163Z,82.63
2019-01-24T08:49:40.639Z,75.17
2019-01-24T08:52:07.130Z,75.90
2019-01-24T08:54:33.680Z,75.30
2019-01-24T08:57:00.191Z,78.00
2019-01-24T08:59:29.604Z,78.40
2019-01-24T09:01:55.127Z,77.70
2019-01-24T09:04:21.635Z,79.07
2019-01-24T09:06:48.056Z,79.03
2019-01-24T09:09:14.653Z,78.73
2019-01-24T09:11:41.209Z,91.10
2019-01-24T09:14:07.714Z,81.57
2019-01-24T09:16:34.198Z,87.63
2019-01-24T09:19:00.934Z,82.50
2019-01-24T09:21:27.615Z,90.33
2019-01-24T09:23:54.151Z,92.97
2019-01-24T09:26:20.618Z,91.27
2019-01-24T09:28:47.150Z,92.03
2019-01-24T09:31:13.724Z,97.63
2019-01-24T09:33:40.114Z,86.30
2019-01-24T09:36:06.705Z,87.97
2019-01-24T09:38:33.196Z,90.23
2019-01-24T09:40:59.844Z,91.67
2019-01-24T09:43:26.348Z,89.13
2019-01-24T09:45:52.916Z,85.87
2019-01-24T09:48:19.665Z,93.50
2019-01-24T09:50:46.253Z,93.80
2019-01-24T09:53:12.530Z,88.87
2019-01-24T09:55:39.064Z,88.20
2019-01-24T09:58:05.675Z,91.53
2019-01-24T10:00:33.589Z,96.40
2019-01-24T10:03:00.266Z,96.20
2019-01-24T10:05:27.149Z,93.33
2019-01-24T10:07:55.008Z,101.83
2019-01-24T10:10:24.521Z,95.07
2019-01-24T10:12:51.964Z,97.00
2019-01-24T10:15:19.981Z,100.67
2019-01-24T10:17:46.639Z,98.00
2019-01-24T10:20:17.843Z,98.77
2019-01-24T10:22:44.668Z,101.80
2019-01-24T10:25:18.916Z,95.47
2019-01-24T10:27:45.570Z,97.00
2019-01-24T10:30:19.125Z,96.93
2019-01-24T10:32:46.232Z,93.17
2019-01-24T10:35:12.811Z,98.60
2019-01-24T10:37:39.548Z,93.43
2019-01-24T10:40:14.266Z,95.63
2019-01-24T10:42:41.136Z,94.17
2019-01-24T10:45:12.748Z,95.97
2019-01-24T10:47:39.531Z,103.60
2019-01-24T10:50:10.755Z,99.47
2019-01-24T10:52:37.379Z,92.63
2019-01-24T10:55:13.619Z,98.30
2019-01-24T10:57:37.229Z,105.63
2019-01-24T11:00:11.978Z,103.27
2019-01-24T11:02:38.575Z,102.53
2019-01-24T11:05:10.641Z,94.80
2019-01-24T11:07:37.244Z,102.60
2019-01-24T11:10:07.660Z,91.53
2019-01-24T11:12:34.201Z,100.87
2019-01-24T11:15:01.016Z,98.37
2019-01-24T11:17:27.579Z,94.33
2019-01-24T11:19:54.023Z,90.80
2019-01-24T11:22:20.557Z,98.00
2019-01-24T11:24:47.218Z,89.60
2019-01-24T11:27:13.957Z,97.37
2019-01-24T11:29:40.691Z,97.37
2019-01-24T11:32:09.112Z,93.10
2019-01-24T11:34:35.540Z,94.27
2019-01-24T11:37:02.030Z,90.47
2019-01-24T11:39:28.415Z,98.80
2019-01-24T11:41:54.941Z,87.50
2019-01-24T11:44:21.566Z,85.83
2019-01-24T11:46:48.269Z,95.80
2019-01-24T11:49:14.663Z,100.07
2019-01-24T11:51:41.330Z,95.20
2019-01-24T11:54:07.606Z,95.50
2019-01-24T11:56:34.135Z,100.87
2019-01-24T11:59:00.723Z,85.10
2019-01-24T12:01:27.481Z,92.97
2019-01-24T12:03:54.112Z,93.03
2019-01-24T12:06:20.602Z,95.93
2019-01-24T12:08:47.142Z,88.67
2019-01-24T12:11:13.786Z,87.77
2019-01-24T12:13:40.385Z,97.00
2019-01-24T12:16:06.819Z,101.47
2019-01-24T12:18:33.320Z,95.67
2019-01-24T12:21:00.084Z,95.37
2019-01-24T12:23:26.592Z,101.30
2019-01-24T12:25:53.116Z,93.27
2019-01-24T12:28:19.580Z,95.77
2019-01-24T12:30:46.115Z,103.03
2019-01-24T12:33:12.615Z,102.23
2019-01-24T12:35:39.377Z,172.70
2019-01-24T12:38:06.159Z,246.30
2019-01-24T12:40:32.664Z,112.70
2019-01-24T12:42:59.275Z,94.03
2019-01-24T12:45:29.778Z,89.53
2019-01-24T12:47:56.529Z,89.53
2019-01-24T12:50:23.005Z,90.43
2019-01-24T12:52:49.875Z,95.40
2019-01-24T12:55:16.870Z,93.77
2019-01-24T12:57:43.542Z,94.23
2019-01-24T13:00:34.708Z,95.93
2019-01-24T13:03:01.237Z,90.33
2019-01-24T13:05:27.931Z,99.23
2019-01-24T13:07:54.590Z,113.17
2019-01-24T13:10:26.522Z,97.33
2019-01-24T13:12:53.255Z,97.03
2019-01-24T13:15:29.148Z,98.73
2019-01-24T13:17:55.682Z,94.07
2019-01-24T13:20:22.374Z,96.80
2019-01-24T13:22:49.020Z,91.67
2019-01-24T13:25:19.148Z,90.47
2019-01-24T13:27:45.800Z,95.17
2019-01-24T13:30:22.286Z,93.03
2019-01-24T13:32:48.990Z,93.17
2019-01-24T13:35:15.926Z,93.27
2019-01-24T13:37:42.480Z,88.37
2019-01-24T13:40:16.815Z,98.60
2019-01-24T13:42:43.544Z,98.10
2019-01-24T13:45:15.084Z,105.17
2019-01-24T13:47:41.655Z,93.90
2019-01-24T13:50:12.668Z,99.10
2019-01-24T13:52:39.387Z,101.13
2019-01-24T13:55:06.453Z,96.00
2019-01-24T13:57:33.107Z,97.30
2019-01-24T13:59:59.782Z,92.10
2019-01-24T14:02:26.596Z,100.47
2019-01-24T14:04:53.240Z,101.07
2019-01-24T14:07:19.562Z,90.03
2019-01-24T14:09:46.331Z,99.67
2019-01-24T14:12:12.995Z,94.70
2019-01-24T14:14:39.647Z,97.70
2019-01-24T14:17:06.291Z,88.60
2019-01-24T14:19:32.747Z,103.37
2019-01-24T14:21:59.496Z,89.93
2019-01-24T14:24:26.083Z,93.67
2019-01-24T14:26:52.848Z,98.27
2019-01-24T14:29:19.384Z,87.50
2019-01-24T14:31:46.125Z,93.73
2019-01-24T14:34:12.761Z,88.20
2019-01-24T14:36:39.485Z,87.60
2019-01-24T14:39:07.653Z,144.83
2019-01-24T14:41:34.294Z,94.90
2019-01-24T14:44:00.810Z,67.53
2019-01-24T14:46:27.357Z,65.13
2019-01-24T14:48:53.882Z,66.33
2019-01-24T14:51:20.539Z,67.90
2019-01-24T14:53:47.134Z,72.90
2019-01-24T14:56:13.812Z,68.40
2019-01-24T14:58:40.366Z,69.60
2019-01-24T15:01:07.056Z,73.93
2019-01-24T15:03:33.584Z,70.90
2019-01-24T15:06:00.240Z,80.67
2019-01-24T15:08:26.941Z,91.17
2019-01-24T15:10:53.715Z,105.80
2019-01-24T15:13:20.367Z,81.27
2019-01-24T15:15:47.090Z,77.10
2019-01-24T15:18:13.715Z,82.40
2019-01-24T15:20:40.387Z,89.00
2019-01-24T15:23:07.228Z,82.17
2019-01-24T15:25:34.117Z,84.13
2019-01-24T15:28:00.636Z,84.20
2019-01-24T15:30:28.988Z,86.77
2019-01-24T15:32:56.044Z,86.27
2019-01-24T15:35:22.691Z,75.07
2019-01-24T15:37:54.360Z,76.80
2019-01-24T15:40:31.707Z,84.03
2019-01-24T15:42:59.242Z,84.57
2019-01-24T15:45:26.758Z,76.60
2019-01-24T15:47:53.591Z,87.43
2019-01-24T15:50:22.249Z,87.00
2019-01-24T15:52:48.972Z,86.13
2019-01-24T15:55:15.856Z,98.23
2019-01-24T15:57:42.600Z,82.97
2019-01-24T16:00:17.743Z,85.30
2019-01-24T16:02:44.419Z,83.67
2019-01-24T16:05:11.151Z,87.87
2019-01-24T16:07:37.783Z,86.23
2019-01-24T16:10:14.851Z,86.27
2019-01-24T16:12:41.514Z,77.70
2019-01-24T16:15:18.838Z,85.93
2019-01-24T16:17:45.463Z,88.97
2019-01-24T16:20:19.430Z,88.03
2019-01-24T16:22:46.280Z,106.37
2019-01-24T16:25:16.833Z,179.83
2019-01-24T16:27:43.825Z,112.27
2019-01-24T16:30:15.678Z,89.87
2019-01-24T16:32:42.560Z,92.63
2019-01-24T16:35:11.882Z,91.70
2019-01-24T16:37:38.862Z,94.43
2019-01-24T16:40:12.838Z,84.63
2019-01-24T16:42:39.543Z,81.77
2019-01-24T16:45:11.426Z,91.30
2019-01-24T16:47:38.196Z,92.77
2019-01-24T16:50:09.324Z,91.73
2019-01-24T16:52:36.124Z,93.77
2019-01-24T16:55:06.212Z,88.97
2019-01-24T16:57:33.034Z,89.77
2019-01-24T16:59:59.701Z,90.73
2019-01-24T17:02:26.675Z,81.03
2019-01-24T17:04:53.417Z,109.20
2019-01-24T17:07:20.706Z,146.90
2019-01-24T17:09:47.416Z,103.70
2019-01-24T17:12:14.066Z,84.20
2019-01-24T17:14:40.719Z,87.63
2019-01-24T17:17:07.279Z,83.23
2019-01-24T17:19:33.982Z,84.00
2019-01-24T17:22:00.934Z,80.47
2019-01-24T17:24:27.543Z,87.43
2019-01-24T17:26:54.056Z,78.37
2019-01-24T17:29:20.845Z,80.60
2019-01-24T17:31:47.432Z,81.20
2019-01-24T17:34:14.105Z,78.17
2019-01-24T17:36:40.859Z,82.60
2019-01-24T17:39:08.143Z,79.50
2019-01-24T17:41:34.553Z,86.23
2019-01-24T17:44:01.244Z,87.90
2019-01-24T17:46:28.015Z,104.83
2019-01-24T17:48:54.678Z,87.03
2019-01-24T17:51:21.318Z,84.53
2019-01-24T17:53:47.987Z,81.40
2019-01-24T17:56:14.645Z,78.20
2019-01-24T17:58:41.590Z,83.33
2019-01-24T18:01:08.360Z,82.83
2019-01-24T18:03:35.021Z,95.00
2019-01-24T18:06:02.306Z,99.90
2019-01-24T18:08:31.443Z,96.37
2019-01-24T18:10:57.834Z,92.13
2019-01-24T18:13:24.485Z,83.93
2019-01-24T18:15:51.172Z,82.10
2019-01-24T18:18:18.417Z,83.43
2019-01-24T18:20:45.248Z,83.03
2019-01-24T18:23:11.940Z,85.20
2019-01-24T18:25:38.590Z,82.80
2019-01-24T18:28:08.481Z,81.03
2019-01-24T18:30:35.699Z,81.97
2019-01-24T18:33:02.951Z,88.17
2019-01-24T18:35:29.815Z,85.80
2019-01-24T18:37:56.540Z,84.07
2019-01-24T18:40:28.705Z,86.87
2019-01-24T18:42:55.987Z,92.30
2019-01-24T18:45:30.534Z,84.20
2019-01-24T18:47:57.190Z,93.40
2019-01-24T18:50:24.255Z,94.03
2019-01-24T18:52:51.452Z,89.17
2019-01-24T18:55:18.200Z,96.20
2019-01-24T18:57:45.693Z,94.47
2019-01-24T19:00:26.306Z,92.27
2019-01-24T19:02:53.131Z,93.93
2019-01-24T19:05:19.828Z,182.03
2019-01-24T19:07:46.749Z,115.10
2019-01-24T19:10:14.006Z,101.63
2019-01-24T19:12:40.878Z,100.00
2019-01-24T19:15:17.331Z,98.93
2019-01-24T19:17:45.883Z,99.07
2019-01-24T19:20:13.879Z,96.50
2019-01-24T19:22:40.637Z,90.70
2019-01-24T19:25:14.340Z,103.80
2019-01-24T19:27:41.240Z,102.30
2019-01-24T19:30:24.645Z,101.23
2019-01-24T19:32:52.061Z,94.53
2019-01-24T19:35:18.834Z,97.80
2019-01-24T19:37:45.709Z,101.33
2019-01-24T19:40:16.589Z,92.83
2019-01-24T19:42:43.173Z,96.97
2019-01-24T19:45:16.490Z,97.47
2019-01-24T19:47:43.773Z,95.40
2019-01-24T19:50:14.971Z,92.50
2019-01-24T19:52:41.435Z,100.13
2019-01-24T19:55:10.983Z,98.43
2019-01-24T19:57:37.768Z,102.37
2019-01-24T20:00:17.941Z,90.33
2019-01-24T20:02:44.758Z,98.50
2019-01-24T20:05:15.110Z,99.23
2019-01-24T20:07:41.808Z,102.47
2019-01-24T20:10:20.772Z,102.37
2019-01-24T20:12:47.819Z,138.50
2019-01-24T20:15:18.915Z,137.03
2019-01-24T20:17:45.725Z,104.50
2019-01-24T20:20:14.589Z,93.43
2019-01-24T20:22:41.331Z,98.90
2019-01-24T20:25:17.563Z,98.23
2019-01-24T20:27:44.297Z,96.40
2019-01-24T20:30:25.613Z,98.83
2019-01-24T20:32:52.337Z,99.37
2019-01-24T20:35:35.907Z,94.13
2019-01-24T20:38:03.764Z,101.27
2019-01-24T20:40:30.441Z,90.13
2019-01-24T20:42:57.127Z,92.47
2019-01-24T20:45:25.932Z,94.43
2019-01-24T20:47:52.858Z,93.33
2019-01-24T20:50:19.608Z,102.63
2019-01-24T20:52:46.393Z,96.63
2019-01-24T20:55:15.195Z,99.67
2019-01-24T20:57:42.086Z,94.87
2019-01-24T21:00:16.775Z,97.10
2019-01-24T21:02:43.977Z,92.80
2019-01-24T21:05:14.338Z,108.17
2019-01-24T21:07:41.115Z,102.27
2019-01-24T21:10:13.112Z,92.20
2019-01-24T21:12:39.948Z,95.90
2019-01-24T21:15:10.912Z,94.90
2019-01-24T21:17:37.493Z,91.70
2019-01-24T21:20:10.010Z,101.30
2019-01-24T21:22:36.667Z,98.73
2019-01-24T21:25:07.977Z,98.13
2019-01-24T21:27:36.546Z,102.43
2019-01-24T21:30:08.686Z,104.17
2019-01-24T21:32:35.471Z,101.37
2019-01-24T21:35:02.438Z,98.37
2019-01-24T21:37:29.395Z,90.00
2019-01-24T21:39:56.077Z,88.23
2019-01-24T21:42:22.730Z,100.37
2019-01-24T21:44:49.483Z,95.07
2019-01-24T21:47:15.982Z,96.53
2019-01-24T21:49:42.879Z,97.93
2019-01-24T21:52:09.538Z,93.87
2019-01-24T21:54:36.299Z,103.43
2019-01-24T21:57:03.182Z,101.50
2019-01-24T21:59:29.729Z,93.73
2019-01-24T22:01:56.255Z,88.50
2019-01-24T22:04:22.809Z,84.33
2019-01-24T22:06:49.463Z,92.30
2019-01-24T22:09:16.036Z,101.80
2019-01-24T22:11:42.686Z,90.53
2019-01-24T22:14:09.409Z,87.70
2019-01-24T22:16:36.031Z,89.67
2019-01-24T22:19:02.991Z,84.20
2019-01-24T22:21:29.648Z,83.77
2019-01-24T22:23:56.253Z,87.13
2019-01-24T22:26:22.916Z,85.93
2019-01-24T22:28:49.431Z,80.43
2019-01-24T22:31:16.156Z,84.50
2019-01-24T22:33:42.745Z,85.07
2019-01-24T22:36:10.197Z,88.70
2019-01-24T22:38:36.829Z,82.63
2019-01-24T22:41:03.807Z,87.20
2019-01-24T22:43:30.473Z,84.00
2019-01-24T22:45:57.058Z,87.10
2019-01-24T22:48:23.600Z,77.40
2019-01-24T22:50:50.241Z,84.23
2019-01-24T22:53:16.878Z,77.03
2019-01-24T22:55:43.527Z,88.53
2019-01-24T22:58:10.189Z,82.10
2019-01-24T23:00:57.395Z,82.77
2019-01-24T23:03:42.847Z,89.80
2019-01-24T23:06:09.571Z,79.63
2019-01-24T23:08:36.385Z,79.07
2019-01-24T23:11:04.368Z,84.27
2019-01-24T23:13:30.891Z,86.47
2019-01-24T23:15:57.421Z,74.03
2019-01-24T23:18:26.673Z,86.43
2019-01-24T23:20:53.360Z,79.57
2019-01-24T23:23:19.946Z,80.13
2019-01-24T23:25:46.656Z,76.13
2019-01-24T23:28:13.223Z,79.97
2019-01-24T23:30:40.116Z,85.50
2019-01-24T23:33:06.762Z,82.10
2019-01-24T23:35:33.401Z,79.60
2019-01-24T23:38:00.167Z,78.37
2019-01-24T23:40:26.782Z,76.53
2019-01-24T23:42:53.354Z,80.97
2019-01-24T23:45:19.947Z,79.97
2019-01-24T23:47:46.366Z,78.43
2019-01-24T23:50:13.067Z,76.53
2019-01-24T23:52:39.587Z,81.63
2019-01-24T23:55:06.626Z,75.50
2019-01-24T23:57:33.158Z,80.53
2019-01-24T23:59:59.686Z,80.93
